createdAt,value
2023-01-19T00:01:44.584Z,7.50
2023-01-19T00:04:13.285Z,7.50
2023-01-19T00:06:42.066Z,6.70
2023-01-19T00:09:10.349Z,5.70
2023-01-19T00:11:39.039Z,6.40
2023-01-19T00:14:07.427Z,6.70
2023-01-19T00:16:36.003Z,8.30
2023-01-19T00:19:04.726Z,7.80
2023-01-19T00:21:32.882Z,6.80
2023-01-19T00:24:01.065Z,7.10
2023-01-19T00:26:29.345Z,6.70
2023-01-19T00:28:57.934Z,7.70
2023-01-19T00:31:26.552Z,6.70
2023-01-19T00:33:54.907Z,7.40
2023-01-19T00:36:23.191Z,6.50
2023-01-19T00:38:51.471Z,6.90
2023-01-19T00:41:39.706Z,6.80
2023-01-19T00:44:08.576Z,6.60
2023-01-19T00:46:37.093Z,7.70
2023-01-19T00:49:06.086Z,6.60
2023-01-19T00:51:34.276Z,6.90
2023-01-19T00:54:05.108Z,5.90
2023-01-19T00:56:33.388Z,5.60
2023-01-19T00:59:02.183Z,5.80
2023-01-19T01:01:45.040Z,5.60
2023-01-19T01:04:15.021Z,5.60
2023-01-19T01:06:43.310Z,5.30
2023-01-19T01:09:14.756Z,5.90
2023-01-19T01:11:43.893Z,6.00
2023-01-19T01:14:12.856Z,4.90
2023-01-19T01:16:41.498Z,6.30
2023-01-19T01:19:09.931Z,5.00
2023-01-19T01:21:38.224Z,5.30
2023-01-19T01:24:08.025Z,5.80
2023-01-19T01:26:36.115Z,4.20
2023-01-19T01:29:06.554Z,4.50
2023-01-19T01:31:34.965Z,5.60
2023-01-19T01:34:03.630Z,4.40
2023-01-19T01:36:33.637Z,4.50
2023-01-19T01:39:01.820Z,4.90
2023-01-19T01:41:30.635Z,4.10
2023-01-19T01:44:01.832Z,5.00
2023-01-19T01:46:32.296Z,4.90
2023-01-19T01:49:05.997Z,5.00
2023-01-19T01:51:48.404Z,4.30
2023-01-19T01:54:27.619Z,5.10
2023-01-19T01:57:01.146Z,4.10
2023-01-19T02:02:51.391Z,4.20
2023-01-19T02:05:36.465Z,7.40
2023-01-19T02:08:35.688Z,4.90
2023-01-19T02:11:23.714Z,5.50
2023-01-19T02:13:51.988Z,5.60
2023-01-19T02:16:20.537Z,5.90
2023-01-19T02:18:48.963Z,4.50
2023-01-19T02:21:29.013Z,6.20
2023-01-19T02:24:01.799Z,4.40
2023-01-19T02:26:35.397Z,4.30
2023-01-19T02:29:21.702Z,3.80
2023-01-19T02:31:50.794Z,4.10
2023-01-19T02:34:21.125Z,4.20
2023-01-19T02:36:54.116Z,3.60
2023-01-19T02:39:34.169Z,4.00
2023-01-19T02:42:15.810Z,4.30
2023-01-19T02:44:48.416Z,4.40
2023-01-19T02:47:17.223Z,4.40
2023-01-19T02:49:53.998Z,5.00
2023-01-19T02:52:22.811Z,4.40
2023-01-19T02:55:19.628Z,5.30
2023-01-19T02:58:02.250Z,5.90
2023-01-19T03:00:52.104Z,6.30
2023-01-19T03:03:42.188Z,5.30
2023-01-19T03:06:31.563Z,3.80
2023-01-19T03:09:21.737Z,4.70
2023-01-19T03:12:29.517Z,5.30
2023-01-19T03:15:05.266Z,3.40
2023-01-19T03:17:36.028Z,3.10
2023-01-19T03:20:06.883Z,3.90
2023-01-19T03:22:35.537Z,4.20
2023-01-19T03:25:04.715Z,3.50
2023-01-19T03:27:41.140Z,4.40
2023-01-19T03:30:26.272Z,6.40
2023-01-19T03:33:07.392Z,7.10
2023-01-19T03:35:39.621Z,6.90
2023-01-19T03:38:15.063Z,6.90
2023-01-19T03:40:45.392Z,6.00
2023-01-19T03:43:16.954Z,6.30
2023-01-19T03:45:46.878Z,4.70
2023-01-19T03:48:15.255Z,5.10
2023-01-19T03:50:43.545Z,5.30
2023-01-19T03:53:14.893Z,5.80
2023-01-19T03:55:47.402Z,5.60
2023-01-19T03:58:15.762Z,3.90
2023-01-19T04:00:44.553Z,3.80
2023-01-19T04:03:17.661Z,4.20
2023-01-19T04:05:46.340Z,3.40
2023-01-19T04:08:15.325Z,3.50
2023-01-19T04:10:43.811Z,5.30
2023-01-19T04:13:12.201Z,5.60
2023-01-19T04:15:40.614Z,4.00
2023-01-19T04:18:09.272Z,4.10
2023-01-19T04:20:37.653Z,4.50
2023-01-19T04:23:06.161Z,4.00
2023-01-19T04:25:34.540Z,5.50
2023-01-19T04:28:03.222Z,5.80
2023-01-19T04:30:32.215Z,4.90
2023-01-19T04:33:00.972Z,6.60
2023-01-19T04:35:29.920Z,4.40
2023-01-19T04:37:58.093Z,5.30
2023-01-19T04:40:26.371Z,6.20
2023-01-19T04:42:54.882Z,14.90
2023-01-19T04:45:23.543Z,10.80
2023-01-19T04:47:52.134Z,9.00
2023-01-19T04:50:20.418Z,11.00
2023-01-19T04:52:49.239Z,7.40
2023-01-19T04:55:18.250Z,7.10
2023-01-19T04:57:46.794Z,5.40
2023-01-19T05:00:17.955Z,8.60
2023-01-19T05:02:46.566Z,20.00
2023-01-19T05:05:16.504Z,10.10
2023-01-19T05:07:44.734Z,8.50
2023-01-19T05:10:13.532Z,7.90
2023-01-19T05:12:42.630Z,7.40
2023-01-19T05:15:11.364Z,12.50
2023-01-19T05:17:40.014Z,18.30
2023-01-19T05:20:11.201Z,23.70
2023-01-19T05:22:39.853Z,11.70
2023-01-19T05:25:08.933Z,14.30
2023-01-19T05:27:38.752Z,15.10
2023-01-19T05:30:07.967Z,17.00
2023-01-19T05:32:36.338Z,15.70
2023-01-19T05:35:05.395Z,26.70
2023-01-19T05:37:33.640Z,38.50
2023-01-19T05:40:01.950Z,22.20
2023-01-19T05:42:32.093Z,17.90
2023-01-19T05:45:01.363Z,8.70
2023-01-19T05:47:30.144Z,9.10
2023-01-19T05:49:58.735Z,8.40
2023-01-19T05:52:27.018Z,14.00
2023-01-19T05:54:55.394Z,8.60
2023-01-19T05:57:24.091Z,10.20
2023-01-19T05:59:52.575Z,7.70
2023-01-19T06:02:21.935Z,19.80
2023-01-19T06:04:50.365Z,9.30
2023-01-19T06:07:18.651Z,6.90
2023-01-19T06:09:47.347Z,7.60
2023-01-19T06:12:15.523Z,8.40
2023-01-19T06:14:43.906Z,6.40
2023-01-19T06:17:12.190Z,7.90
2023-01-19T06:19:40.916Z,5.30
2023-01-19T06:22:09.622Z,7.50
2023-01-19T06:24:38.161Z,6.70
2023-01-19T06:27:07.570Z,7.80
2023-01-19T06:29:36.357Z,6.90
2023-01-19T06:32:05.758Z,5.70
2023-01-19T06:34:34.050Z,6.60
2023-01-19T06:37:02.636Z,7.40
2023-01-19T06:39:30.821Z,7.80
2023-01-19T06:41:59.209Z,8.30
2023-01-19T06:44:27.587Z,8.90
2023-01-19T06:47:14.520Z,7.90
2023-01-19T06:49:44.104Z,9.20
2023-01-19T06:52:17.604Z,8.70
2023-01-19T06:54:46.400Z,7.40
2023-01-19T06:57:15.369Z,6.70
2023-01-19T06:59:43.691Z,8.00
2023-01-19T07:02:27.486Z,9.30
2023-01-19T07:04:57.177Z,6.70
2023-01-19T07:07:26.306Z,5.90
2023-01-19T07:09:54.823Z,5.20
2023-01-19T07:12:24.230Z,6.90
2023-01-19T07:14:52.920Z,8.30
2023-01-19T07:17:21.414Z,8.40
2023-01-19T07:19:49.588Z,7.00
2023-01-19T07:22:17.775Z,7.90
2023-01-19T07:24:46.052Z,10.10
2023-01-19T07:27:16.596Z,8.90
2023-01-19T07:29:44.873Z,8.60
2023-01-19T07:32:13.553Z,11.40
2023-01-19T07:34:41.950Z,10.70
2023-01-19T07:37:10.324Z,9.70
2023-01-19T07:39:38.704Z,10.10
2023-01-19T07:42:07.198Z,9.40
2023-01-19T07:44:35.987Z,8.60
2023-01-19T07:47:07.649Z,6.30
2023-01-19T07:49:36.645Z,7.30
2023-01-19T07:52:05.658Z,8.80
2023-01-19T07:54:34.130Z,8.30
2023-01-19T07:57:02.411Z,6.60
2023-01-19T07:59:32.399Z,7.50
2023-01-19T08:02:01.478Z,7.70
2023-01-19T08:04:30.051Z,7.10
2023-01-19T08:06:58.511Z,9.60
2023-01-19T08:09:26.999Z,6.70
2023-01-19T08:11:55.481Z,8.20
2023-01-19T08:14:23.664Z,8.00
2023-01-19T08:16:52.064Z,7.20
2023-01-19T08:19:20.600Z,6.60
2023-01-19T08:21:48.827Z,6.60
2023-01-19T08:24:23.004Z,6.10
2023-01-19T08:26:58.619Z,6.20
2023-01-19T08:29:27.571Z,6.40
2023-01-19T08:31:57.733Z,6.40
2023-01-19T08:34:26.395Z,5.80
2023-01-19T08:36:54.569Z,8.20
2023-01-19T08:39:24.078Z,6.40
2023-01-19T08:41:52.675Z,6.00
2023-01-19T08:44:21.630Z,6.40
2023-01-19T08:46:50.263Z,6.90
2023-01-19T08:49:18.542Z,6.40
2023-01-19T08:51:47.241Z,7.90
2023-01-19T08:54:18.539Z,8.40
2023-01-19T08:56:47.276Z,7.00
2023-01-19T08:59:17.093Z,6.30
2023-01-19T09:01:45.375Z,7.30
2023-01-19T09:04:14.271Z,6.50
2023-01-19T09:06:42.928Z,6.60
2023-01-19T09:09:11.045Z,7.30
2023-01-19T09:11:39.218Z,6.00
2023-01-19T09:14:08.649Z,6.00
2023-01-19T09:16:37.009Z,5.80
2023-01-19T09:19:08.800Z,6.80
2023-01-19T09:21:37.261Z,6.80
2023-01-19T09:24:05.752Z,5.90
2023-01-19T09:26:34.233Z,5.90
2023-01-19T09:29:03.247Z,6.20
2023-01-19T09:31:31.470Z,7.20
2023-01-19T09:34:00.111Z,6.20
2023-01-19T09:36:28.277Z,6.20
2023-01-19T09:38:56.666Z,6.00
2023-01-19T09:41:26.581Z,5.50
2023-01-19T09:43:58.150Z,6.00
2023-01-19T09:46:35.604Z,6.30
2023-01-19T09:49:12.803Z,5.70
2023-01-19T09:51:45.396Z,6.90
2023-01-19T09:54:28.527Z,6.20
2023-01-19T09:56:57.107Z,5.00
2023-01-19T09:59:29.257Z,5.70
2023-01-19T10:02:00.524Z,6.60
2023-01-19T10:04:43.034Z,7.10
2023-01-19T10:08:03.798Z,5.60
2023-01-19T10:10:33.226Z,6.40
2023-01-19T10:13:20.233Z,6.30
2023-01-19T10:16:12.977Z,5.90
2023-01-19T10:18:51.715Z,7.00
2023-01-19T10:21:42.893Z,6.60
2023-01-19T10:24:33.429Z,6.80
2023-01-19T10:27:02.075Z,6.00
2023-01-19T10:29:38.365Z,6.00
2023-01-19T10:32:15.021Z,6.90
2023-01-19T10:34:43.892Z,6.10
2023-01-19T10:37:26.105Z,6.10
2023-01-19T10:39:57.486Z,6.50
2023-01-19T10:42:29.730Z,6.80
2023-01-19T10:44:58.726Z,6.60
2023-01-19T10:47:37.180Z,6.50
2023-01-19T10:50:40.886Z,5.90
2023-01-19T10:53:21.171Z,6.90
2023-01-19T10:56:22.485Z,5.30
2023-01-19T10:58:51.801Z,6.50
2023-01-19T11:01:24.595Z,6.00
2023-01-19T11:03:55.599Z,6.10
2023-01-19T11:06:30.747Z,6.80
2023-01-19T11:09:16.848Z,6.80
2023-01-19T11:11:51.419Z,7.40
2023-01-19T11:14:23.781Z,6.40
2023-01-19T11:16:56.530Z,8.20
2023-01-19T11:19:33.471Z,6.70
2023-01-19T11:22:27.110Z,5.90
2023-01-19T11:25:03.884Z,5.90
2023-01-19T11:27:36.565Z,6.40
2023-01-19T11:30:22.554Z,6.40
2023-01-19T11:32:51.896Z,6.00
2023-01-19T11:35:34.267Z,6.60
2023-01-19T11:38:12.270Z,5.80
2023-01-19T11:40:42.292Z,7.40
2023-01-19T11:43:13.738Z,6.80
2023-01-19T11:45:44.937Z,8.10
2023-01-19T11:48:23.719Z,5.90
2023-01-19T11:50:52.419Z,6.90
2023-01-19T11:53:29.502Z,5.60
2023-01-19T11:56:06.526Z,4.50
2023-01-19T11:58:39.697Z,6.10
2023-01-19T12:01:14.007Z,6.00
2023-01-19T12:03:55.358Z,6.90
2023-01-19T12:06:35.305Z,7.20
2023-01-19T12:09:09.743Z,6.00
2023-01-19T12:11:44.114Z,6.70
2023-01-19T12:14:22.875Z,6.50
2023-01-19T12:16:54.775Z,5.80
2023-01-19T12:19:34.170Z,6.00
2023-01-19T12:22:04.297Z,6.60
2023-01-19T12:24:45.268Z,5.70
2023-01-19T12:27:44.051Z,6.10
2023-01-19T12:30:18.771Z,5.30
2023-01-19T12:32:47.677Z,6.70
2023-01-19T12:35:54.181Z,5.70
2023-01-19T12:38:38.180Z,6.60
2023-01-19T12:41:26.197Z,5.40
2023-01-19T12:44:16.792Z,6.70
2023-01-19T12:47:03.394Z,7.60
2023-01-19T12:49:51.620Z,6.10
2023-01-19T12:52:22.057Z,6.70
2023-01-19T12:54:58.928Z,5.70
2023-01-19T12:57:33.150Z,6.30
2023-01-19T13:00:28.191Z,5.50
2023-01-19T13:03:25.593Z,6.90
2023-01-19T13:05:56.089Z,5.70
2023-01-19T13:08:53.160Z,5.70
2023-01-19T13:11:26.317Z,6.80
2023-01-19T13:13:58.120Z,6.80
2023-01-19T13:16:27.713Z,6.10
2023-01-19T13:19:00.730Z,6.70
2023-01-19T13:21:44.671Z,6.40
2023-01-19T13:24:24.302Z,6.90
2023-01-19T13:26:59.135Z,6.60
2023-01-19T13:29:37.541Z,7.10
2023-01-19T13:32:19.450Z,6.60
2023-01-19T13:34:54.891Z,6.60
2023-01-19T13:37:32.061Z,6.80
2023-01-19T13:40:01.245Z,5.80
2023-01-19T13:42:35.782Z,5.60
2023-01-19T13:45:30.889Z,6.10
2023-01-19T13:48:02.875Z,8.20
2023-01-19T13:50:36.046Z,6.60
2023-01-19T13:53:19.188Z,6.60
2023-01-19T13:55:50.340Z,6.50
2023-01-19T13:58:24.294Z,7.60
2023-01-19T14:00:53.135Z,6.40
2023-01-19T14:03:24.191Z,6.70
2023-01-19T14:05:54.561Z,6.80
2023-01-19T14:08:25.570Z,6.30
2023-01-19T14:10:53.877Z,8.10
2023-01-19T14:13:29.799Z,7.20
2023-01-19T14:16:01.173Z,6.80
2023-01-19T14:18:31.777Z,7.00
2023-01-19T14:21:03.458Z,7.90
2023-01-19T14:23:57.648Z,6.20
2023-01-19T14:26:38.565Z,7.10
2023-01-19T14:29:24.041Z,6.10
2023-01-19T14:32:12.794Z,7.90
2023-01-19T14:34:48.847Z,7.00
2023-01-19T14:37:23.778Z,7.10
2023-01-19T14:39:55.543Z,6.60
2023-01-19T14:42:34.878Z,7.50
2023-01-19T14:45:08.221Z,7.50
2023-01-19T14:47:43.267Z,8.10
2023-01-19T14:50:17.837Z,8.70
2023-01-19T14:52:54.819Z,7.40
2023-01-19T14:55:52.062Z,8.50
2023-01-19T14:58:23.194Z,7.30
2023-01-19T15:00:58.156Z,7.40
2023-01-19T15:03:43.619Z,7.20
2023-01-19T15:06:18.973Z,7.50
2023-01-19T15:08:49.021Z,9.80
2023-01-19T15:11:35.990Z,9.70
2023-01-19T15:14:04.474Z,10.10
2023-01-19T15:16:34.782Z,10.00
2023-01-19T15:19:03.183Z,10.60
2023-01-19T15:21:31.780Z,9.90
2023-01-19T15:24:00.566Z,11.60
2023-01-19T15:26:29.161Z,10.40
2023-01-19T15:28:57.439Z,11.20
2023-01-19T15:31:27.020Z,8.90
2023-01-19T15:33:55.911Z,9.60
2023-01-19T15:36:24.584Z,8.80
2023-01-19T15:38:52.816Z,9.80
2023-01-19T15:41:30.020Z,8.80
2023-01-19T15:43:59.106Z,9.50
2023-01-19T15:46:28.181Z,9.10
2023-01-19T15:48:56.386Z,7.60
2023-01-19T15:51:26.881Z,9.20
2023-01-19T15:53:55.511Z,8.80
2023-01-19T15:56:26.570Z,7.60
2023-01-19T15:58:55.349Z,7.70
2023-01-19T16:01:34.051Z,10.00
2023-01-19T16:04:05.644Z,9.20
2023-01-19T16:06:34.440Z,8.90
2023-01-19T16:09:04.040Z,10.50
2023-01-19T16:11:34.387Z,11.50
2023-01-19T16:14:02.944Z,15.50
2023-01-19T16:16:31.391Z,13.50
2023-01-19T16:18:59.817Z,13.90
2023-01-19T16:21:28.607Z,12.20
2023-01-19T16:23:57.101Z,13.00
2023-01-19T16:26:34.651Z,12.40
2023-01-19T16:29:10.577Z,11.20
2023-01-19T16:31:40.969Z,11.20
2023-01-19T16:34:10.394Z,10.90
2023-01-19T16:36:41.395Z,10.60
2023-01-19T16:39:13.811Z,11.10
2023-01-19T16:41:43.879Z,9.70
2023-01-19T16:44:14.771Z,11.90
2023-01-19T16:46:45.715Z,13.50
2023-01-19T16:49:17.075Z,13.60
2023-01-19T16:51:46.057Z,12.30
2023-01-19T16:54:15.961Z,12.50
2023-01-19T16:56:44.776Z,12.50
2023-01-19T16:59:16.390Z,11.10
2023-01-19T17:01:45.817Z,14.60
2023-01-19T17:04:14.848Z,10.60
2023-01-19T17:06:43.528Z,11.80
2023-01-19T17:09:12.387Z,10.90
2023-01-19T17:11:41.321Z,11.00
2023-01-19T17:14:16.643Z,9.10
2023-01-19T17:16:44.939Z,9.70
2023-01-19T17:19:16.916Z,9.10
2023-01-19T17:21:48.810Z,8.90
2023-01-19T17:24:17.637Z,10.70
2023-01-19T17:26:48.928Z,9.50
2023-01-19T17:29:17.814Z,10.50
2023-01-19T17:31:46.986Z,10.10
2023-01-19T17:34:15.301Z,12.30
2023-01-19T17:36:44.201Z,11.20
2023-01-19T17:39:15.117Z,11.40
2023-01-19T17:41:43.318Z,9.60
2023-01-19T17:44:12.014Z,11.60
2023-01-19T17:46:40.297Z,11.90
2023-01-19T17:49:08.890Z,11.00
2023-01-19T17:51:37.265Z,9.90
2023-01-19T17:54:05.963Z,11.60
2023-01-19T17:56:37.715Z,11.10
2023-01-19T17:59:08.287Z,10.30
2023-01-19T18:01:40.137Z,10.60
2023-01-19T18:04:10.012Z,13.30
2023-01-19T18:06:38.733Z,12.50
2023-01-19T18:09:07.922Z,10.70
2023-01-19T18:11:36.211Z,11.50
2023-01-19T18:14:05.547Z,11.90
2023-01-19T18:16:34.111Z,12.90
2023-01-19T18:19:02.390Z,12.00
2023-01-19T18:21:30.975Z,12.60
2023-01-19T18:24:04.506Z,13.20
2023-01-19T18:26:34.798Z,11.90
2023-01-19T18:29:03.498Z,11.50
2023-01-19T18:31:32.077Z,11.70
2023-01-19T18:34:01.115Z,13.90
2023-01-19T18:36:32.145Z,12.30
2023-01-19T18:39:01.693Z,12.20
2023-01-19T18:41:30.275Z,13.20
2023-01-19T18:43:59.229Z,12.40
2023-01-19T18:46:27.820Z,12.40
2023-01-19T18:48:56.205Z,13.00
2023-01-19T18:51:24.814Z,14.90
2023-01-19T18:53:53.172Z,14.00
2023-01-19T18:56:21.580Z,12.90
2023-01-19T18:58:49.949Z,12.00
2023-01-19T19:01:18.807Z,11.70
2023-01-19T19:03:47.331Z,14.20
2023-01-19T19:06:17.139Z,14.90
2023-01-19T19:08:45.834Z,14.50
2023-01-19T19:11:14.358Z,16.30
2023-01-19T19:13:42.711Z,16.20
2023-01-19T19:16:13.095Z,14.30
2023-01-19T19:18:41.419Z,15.30
2023-01-19T19:21:12.260Z,14.70
2023-01-19T19:23:40.443Z,13.60
2023-01-19T19:26:11.284Z,11.50
2023-01-19T19:28:40.734Z,13.30
2023-01-19T19:31:12.062Z,13.80
2023-01-19T19:33:41.142Z,12.90
2023-01-19T19:36:10.584Z,12.30
2023-01-19T19:38:41.290Z,10.50
2023-01-19T19:41:12.749Z,9.90
2023-01-19T19:43:41.269Z,9.80
2023-01-19T19:46:13.035Z,11.30
2023-01-19T19:48:41.881Z,9.60
2023-01-19T19:51:19.090Z,11.90
2023-01-19T19:53:51.230Z,11.20
2023-01-19T19:56:22.280Z,9.20
2023-01-19T19:58:52.461Z,9.60
2023-01-19T20:01:29.064Z,11.30
2023-01-19T20:04:00.232Z,9.20
2023-01-19T20:06:28.822Z,9.60
2023-01-19T20:08:57.205Z,10.20
2023-01-19T20:11:28.354Z,10.90
2023-01-19T20:13:56.530Z,9.90
2023-01-19T20:16:25.075Z,11.00
2023-01-19T20:18:54.400Z,13.00
2023-01-19T20:21:28.737Z,12.80
2023-01-19T20:24:01.061Z,12.80
2023-01-19T20:26:32.479Z,10.00
2023-01-19T20:29:03.154Z,8.20
2023-01-19T20:31:34.487Z,10.80
2023-01-19T20:34:05.917Z,9.30
2023-01-19T20:36:35.457Z,10.90
2023-01-19T20:39:10.480Z,9.70
2023-01-19T20:41:43.816Z,9.60
2023-01-19T20:44:15.624Z,8.50
2023-01-19T20:46:44.212Z,9.50
2023-01-19T20:49:12.587Z,8.30
2023-01-19T20:51:46.313Z,8.60
2023-01-19T20:54:16.729Z,5.80
2023-01-19T20:56:45.231Z,8.90
2023-01-19T20:59:14.182Z,4.90
2023-01-19T21:01:43.280Z,5.00
2023-01-19T21:04:12.988Z,5.50
2023-01-19T21:06:42.193Z,5.10
2023-01-19T21:09:11.162Z,7.00
2023-01-19T21:11:40.127Z,7.50
2023-01-19T21:14:08.303Z,8.50
2023-01-19T21:16:37.586Z,7.80
2023-01-19T21:19:06.000Z,9.60
2023-01-19T21:21:34.273Z,5.90
2023-01-19T21:24:04.302Z,4.70
2023-01-19T21:26:33.785Z,4.10
2023-01-19T21:29:02.868Z,4.30
2023-01-19T21:31:31.672Z,3.60
2023-01-19T21:34:00.002Z,7.30
2023-01-19T21:36:28.467Z,6.40
2023-01-19T21:39:00.918Z,7.10
2023-01-19T21:41:30.658Z,7.80
2023-01-19T21:44:00.973Z,8.10
2023-01-19T21:46:30.620Z,7.20
2023-01-19T21:49:01.581Z,8.10
2023-01-19T21:51:33.644Z,9.10
2023-01-19T21:54:03.473Z,8.40
2023-01-19T21:56:32.304Z,8.50
2023-01-19T21:59:03.166Z,6.90
2023-01-19T22:01:33.231Z,6.90
2023-01-19T22:04:01.586Z,6.50
2023-01-19T22:06:30.057Z,6.60
2023-01-19T22:08:58.644Z,5.80
2023-01-19T22:11:27.345Z,7.70
2023-01-19T22:13:55.825Z,7.10
2023-01-19T22:16:24.208Z,7.50
2023-01-19T22:18:56.371Z,7.60
2023-01-19T22:21:26.815Z,7.70
2023-01-19T22:23:59.080Z,6.30
2023-01-19T22:26:30.040Z,7.00
2023-01-19T22:29:00.173Z,6.60
2023-01-19T22:31:29.600Z,6.60
2023-01-19T22:33:58.510Z,6.70
2023-01-19T22:36:34.107Z,6.30
2023-01-19T22:39:07.311Z,5.50
2023-01-19T22:41:44.958Z,6.70
2023-01-19T22:44:16.461Z,6.50
2023-01-19T22:46:45.157Z,7.40
2023-01-19T22:49:16.706Z,5.90
2023-01-19T22:51:46.153Z,7.50
2023-01-19T22:54:14.388Z,5.30
2023-01-19T22:56:42.985Z,6.80
2023-01-19T22:59:11.883Z,5.40
2023-01-19T23:01:43.234Z,5.00
2023-01-19T23:04:14.762Z,6.10
2023-01-19T23:06:43.470Z,5.60
2023-01-19T23:09:14.338Z,5.10
2023-01-19T23:11:45.164Z,4.80
2023-01-19T23:14:16.307Z,7.00
2023-01-19T23:16:47.255Z,5.80
2023-01-19T23:19:17.411Z,4.80
2023-01-19T23:21:45.965Z,6.10
2023-01-19T23:24:14.130Z,4.50
2023-01-19T23:26:42.519Z,5.40
2023-01-19T23:29:13.786Z,4.80
2023-01-19T23:31:50.646Z,4.20
2023-01-19T23:34:19.553Z,5.20
2023-01-19T23:36:48.068Z,5.20
2023-01-19T23:39:22.271Z,5.00
2023-01-19T23:41:50.838Z,4.60
2023-01-19T23:44:19.873Z,4.70
2023-01-19T23:46:48.219Z,4.70
2023-01-19T23:49:17.223Z,5.80
2023-01-19T23:51:45.702Z,4.90
2023-01-19T23:54:13.880Z,6.20
2023-01-19T23:56:43.000Z,5.80
2023-01-19T23:59:16.505Z,5.70
